createdAt,value
2018-04-12T00:00:10.431Z,9.20
2018-04-12T00:02:44.065Z,9.30
2018-04-12T00:05:17.874Z,9.30
2018-04-12T00:07:51.673Z,9.40
2018-04-12T00:10:25.390Z,9.50
2018-04-12T00:12:59.180Z,9.50
2018-04-12T00:15:32.811Z,9.50
2018-04-12T00:18:06.747Z,9.50
2018-04-12T00:20:40.486Z,9.50
2018-04-12T00:23:14.108Z,9.50
2018-04-12T00:25:47.876Z,9.50
2018-04-12T00:28:21.604Z,9.50
2018-04-12T00:30:55.310Z,9.50
2018-04-12T00:33:29.315Z,9.60
2018-04-12T00:36:03.006Z,9.50
2018-04-12T00:38:36.745Z,9.50
2018-04-12T00:41:10.363Z,9.50
2018-04-12T00:43:44.060Z,9.50
2018-04-12T00:46:17.766Z,9.50
2018-04-12T00:48:51.532Z,9.40
2018-04-12T00:51:25.291Z,9.40
2018-04-12T00:54:05.843Z,9.40
2018-04-12T00:56:39.407Z,9.30
2018-04-12T00:59:13.768Z,9.20
2018-04-12T01:01:47.439Z,9.20
2018-04-12T01:04:21.200Z,9.20
2018-04-12T01:06:55.716Z,9.20
2018-04-12T01:09:29.269Z,9.20
2018-04-12T01:12:03.003Z,9.20
2018-04-12T01:14:36.657Z,9.10
2018-04-12T01:17:10.268Z,9.10
2018-04-12T01:19:44.013Z,9.10
2018-04-12T01:22:18.500Z,9.00
2018-04-12T01:24:52.195Z,9.00
2018-04-12T01:27:25.886Z,8.90
2018-04-12T01:29:59.487Z,9.00
2018-04-12T01:32:33.911Z,8.90
2018-04-12T01:35:07.466Z,8.90
2018-04-12T01:37:41.240Z,8.90
2018-04-12T01:40:14.958Z,8.90
2018-04-12T01:42:49.473Z,8.80
2018-04-12T01:45:23.989Z,8.80
2018-04-12T01:47:58.420Z,8.80
2018-04-12T01:50:32.828Z,8.80
2018-04-12T01:53:06.523Z,8.80
2018-04-12T01:55:40.124Z,8.80
2018-04-12T01:58:14.646Z,8.80
2018-04-12T02:00:48.274Z,8.80
2018-04-12T02:03:22.024Z,8.70
2018-04-12T02:05:55.752Z,8.70
2018-04-12T02:08:29.529Z,8.70
2018-04-12T02:11:04.045Z,8.70
2018-04-12T02:13:37.787Z,8.70
2018-04-12T02:16:11.523Z,8.70
2018-04-12T02:18:45.950Z,8.60
2018-04-12T02:21:19.544Z,8.60
2018-04-12T02:23:53.219Z,8.60
2018-04-12T02:26:26.936Z,8.70
2018-04-12T02:29:00.584Z,8.70
2018-04-12T02:31:35.085Z,8.70
2018-04-12T02:34:08.945Z,8.60
2018-04-12T02:36:42.683Z,8.60
2018-04-12T02:39:16.273Z,8.60
2018-04-12T02:41:49.976Z,8.60
2018-04-12T02:44:24.340Z,8.60
2018-04-12T02:46:58.117Z,8.60
2018-04-12T02:49:31.785Z,8.60
2018-04-12T02:52:06.215Z,8.60
2018-04-12T02:54:39.830Z,8.50
2018-04-12T02:57:13.522Z,8.50
2018-04-12T02:59:47.158Z,8.50
2018-04-12T03:02:20.752Z,8.40
2018-04-12T03:04:54.323Z,8.40
2018-04-12T03:07:28.085Z,8.40
2018-04-12T03:10:01.827Z,8.40
2018-04-12T03:12:35.519Z,8.40
2018-04-12T03:15:09.231Z,8.30
2018-04-12T03:17:42.934Z,8.30
2018-04-12T03:20:16.723Z,8.20
2018-04-12T03:22:50.376Z,8.30
2018-04-12T03:25:24.171Z,8.20
2018-04-12T03:27:57.866Z,8.20
2018-04-12T03:30:32.226Z,8.20
2018-04-12T03:33:05.876Z,8.20
2018-04-12T03:35:40.235Z,8.20
2018-04-12T03:38:13.964Z,8.20
2018-04-12T03:40:47.659Z,8.20
2018-04-12T03:43:21.429Z,8.20
2018-04-12T03:45:55.163Z,8.20
2018-04-12T03:48:28.932Z,8.20
2018-04-12T03:51:02.707Z,8.10
2018-04-12T03:53:36.469Z,8.10
2018-04-12T03:56:10.972Z,8.10
2018-04-12T03:58:44.768Z,8.10
2018-04-12T04:01:18.496Z,8.10
2018-04-12T04:03:52.815Z,8.10
2018-04-12T04:06:26.590Z,8.10
2018-04-12T04:09:00.199Z,8.10
2018-04-12T04:11:33.904Z,8.00
2018-04-12T04:14:07.743Z,8.00
2018-04-12T04:17:02.953Z,8.00
2018-04-12T04:19:48.408Z,8.00
2018-04-12T04:22:21.929Z,7.90
2018-04-12T04:24:55.496Z,7.90
2018-04-12T04:27:29.265Z,7.90
2018-04-12T04:30:02.980Z,7.90
2018-04-12T04:32:36.778Z,7.90
2018-04-12T04:35:10.462Z,7.90
2018-04-12T04:37:44.223Z,7.90
2018-04-12T04:40:17.977Z,7.90
2018-04-12T04:42:51.699Z,7.90
2018-04-12T04:45:25.430Z,7.90
2018-04-12T04:47:59.120Z,7.90
2018-04-12T04:50:32.908Z,7.80
2018-04-12T04:53:06.641Z,7.80
2018-04-12T04:55:40.470Z,7.80
2018-04-12T04:58:14.152Z,7.80
2018-04-12T05:00:47.713Z,7.90
2018-04-12T05:03:22.169Z,7.90
2018-04-12T05:05:55.758Z,7.90
2018-04-12T05:08:29.447Z,7.90
2018-04-12T05:11:03.185Z,7.90
2018-04-12T05:13:36.943Z,7.90
2018-04-12T05:16:11.459Z,7.90
2018-04-12T05:18:45.051Z,7.90
2018-04-12T05:21:18.631Z,7.90
2018-04-12T05:23:52.437Z,7.90
2018-04-12T05:26:26.979Z,8.00
2018-04-12T05:29:00.738Z,7.90
2018-04-12T05:31:34.313Z,8.00
2018-04-12T05:34:08.027Z,7.90
2018-04-12T05:36:41.744Z,7.90
2018-04-12T05:39:15.475Z,7.90
2018-04-12T05:41:49.213Z,7.90
2018-04-12T05:44:22.893Z,7.90
2018-04-12T05:46:56.601Z,7.90
2018-04-12T05:49:30.313Z,7.80
2018-04-12T05:52:04.030Z,7.80
2018-04-12T05:54:37.795Z,7.80
2018-04-12T05:57:11.407Z,7.90
2018-04-12T05:59:45.926Z,7.90
2018-04-12T06:02:19.496Z,7.90
2018-04-12T06:04:54.059Z,7.90
2018-04-12T06:07:27.825Z,7.90
2018-04-12T06:10:01.517Z,8.00
2018-04-12T06:12:35.231Z,7.90
2018-04-12T06:15:09.015Z,8.00
2018-04-12T06:17:42.716Z,8.00
2018-04-12T06:20:16.486Z,8.00
2018-04-12T06:22:50.955Z,7.90
2018-04-12T06:25:25.578Z,7.90
2018-04-12T06:27:59.239Z,7.90
2018-04-12T06:30:33.877Z,7.90
2018-04-12T06:33:07.490Z,7.90
2018-04-12T06:35:41.223Z,8.00
2018-04-12T06:38:15.086Z,8.00
2018-04-12T06:40:50.472Z,8.10
2018-04-12T06:43:24.109Z,8.10
2018-04-12T06:45:58.491Z,8.10
2018-04-12T06:48:32.039Z,8.10
2018-04-12T06:51:06.485Z,8.10
2018-04-12T06:53:40.270Z,8.20
2018-04-12T06:56:13.996Z,8.30
2018-04-12T06:58:48.477Z,8.40
2018-04-12T07:01:22.124Z,8.40
2018-04-12T07:03:55.910Z,8.40
2018-04-12T07:06:31.300Z,8.50
2018-04-12T07:09:05.891Z,8.50
2018-04-12T07:11:40.303Z,8.70
2018-04-12T07:14:14.080Z,8.60
2018-04-12T07:16:47.787Z,8.80
2018-04-12T07:19:22.239Z,8.90
2018-04-12T07:21:56.010Z,8.90
2018-04-12T07:24:29.761Z,9.00
2018-04-12T07:27:03.360Z,9.00
2018-04-12T07:29:37.121Z,9.00
2018-04-12T07:32:11.747Z,9.10
2018-04-12T07:34:45.435Z,9.10
2018-04-12T07:37:19.067Z,9.20
2018-04-12T07:39:52.970Z,9.20
2018-04-12T07:42:26.545Z,9.20
2018-04-12T07:45:01.028Z,9.40
2018-04-12T07:47:34.755Z,9.40
2018-04-12T07:50:08.388Z,9.50
2018-04-12T07:52:42.926Z,9.50
2018-04-12T07:55:17.467Z,9.40
2018-04-12T07:57:51.119Z,9.40
2018-04-12T08:00:24.841Z,9.40
2018-04-12T08:02:59.360Z,9.50
2018-04-12T08:05:33.131Z,9.40
2018-04-12T08:08:06.820Z,9.60
2018-04-12T08:10:40.508Z,9.50
2018-04-12T08:13:14.219Z,9.60
2018-04-12T08:15:47.940Z,9.60
2018-04-12T08:18:21.727Z,9.70
2018-04-12T08:20:57.870Z,9.80
2018-04-12T08:23:31.703Z,9.70
2018-04-12T08:26:05.407Z,9.80
2018-04-12T08:28:39.145Z,9.90
2018-04-12T08:31:12.844Z,10.00
2018-04-12T08:33:46.501Z,10.10
2018-04-12T08:36:20.131Z,10.10
2018-04-12T08:38:53.795Z,10.10
2018-04-12T08:41:27.569Z,10.10
2018-04-12T08:44:01.329Z,10.10
2018-04-12T08:46:35.098Z,10.30
2018-04-12T08:49:09.684Z,10.30
2018-04-12T08:51:43.392Z,10.20
2018-04-12T08:54:17.024Z,10.40
2018-04-12T08:56:51.658Z,10.50
2018-04-12T08:59:25.979Z,10.90
2018-04-12T09:01:59.731Z,10.90
2018-04-12T09:04:34.799Z,11.20
2018-04-12T09:07:09.053Z,11.50
2018-04-12T09:09:43.550Z,11.60
2018-04-12T09:12:17.248Z,11.60
2018-04-12T09:14:50.843Z,11.70
2018-04-12T09:17:25.198Z,12.00
2018-04-12T09:19:58.971Z,11.90
2018-04-12T09:22:32.742Z,11.90
2018-04-12T09:25:06.359Z,11.90
2018-04-12T09:27:40.061Z,11.90
2018-04-12T09:30:13.758Z,12.00
2018-04-12T09:32:47.458Z,11.90
2018-04-12T09:35:21.188Z,11.90
2018-04-12T09:37:54.922Z,11.90
2018-04-12T09:40:28.702Z,12.00
2018-04-12T09:43:02.379Z,12.10
2018-04-12T09:45:36.031Z,12.20
2018-04-12T09:48:10.621Z,12.20
2018-04-12T09:50:44.280Z,12.10
2018-04-12T09:53:17.995Z,12.20
2018-04-12T09:55:51.729Z,12.50
2018-04-12T09:58:25.454Z,13.00
2018-04-12T10:00:59.196Z,13.30
2018-04-12T10:03:32.973Z,13.20
2018-04-12T10:06:06.713Z,13.20
2018-04-12T10:08:43.346Z,13.20
2018-04-12T10:11:16.960Z,13.10
2018-04-12T10:13:50.663Z,12.90
2018-04-12T10:16:24.367Z,12.90
2018-04-12T10:18:57.999Z,12.90
2018-04-12T10:21:31.802Z,12.80
2018-04-12T10:24:05.601Z,12.70
2018-04-12T10:26:39.355Z,12.70
2018-04-12T10:29:13.768Z,12.80
2018-04-12T10:31:48.416Z,12.90
2018-04-12T10:34:22.166Z,12.90
2018-04-12T10:36:55.984Z,12.90
2018-04-12T10:39:29.806Z,12.80
2018-04-12T10:42:04.283Z,12.70
2018-04-12T10:44:38.079Z,12.70
2018-04-12T10:47:12.818Z,12.70
2018-04-12T10:49:46.535Z,12.70
2018-04-12T10:52:20.292Z,12.70
2018-04-12T10:54:54.037Z,12.80
2018-04-12T10:57:27.780Z,12.80
2018-04-12T11:00:02.208Z,12.90
2018-04-12T11:02:35.886Z,12.90
2018-04-12T11:05:10.296Z,13.20
2018-04-12T11:07:44.709Z,13.60
2018-04-12T11:10:18.364Z,13.60
2018-04-12T11:12:52.096Z,14.10
2018-04-12T11:15:26.540Z,14.80
2018-04-12T11:18:00.831Z,14.70
2018-04-12T11:20:34.571Z,14.80
2018-04-12T11:23:08.334Z,14.80
2018-04-12T11:25:42.073Z,14.80
2018-04-12T11:28:15.912Z,14.90
2018-04-12T11:30:49.545Z,15.20
2018-04-12T11:33:25.567Z,15.50
2018-04-12T11:35:59.146Z,16.00
2018-04-12T11:38:32.924Z,16.70
2018-04-12T11:41:06.949Z,17.10
2018-04-12T11:43:40.547Z,17.10
2018-04-12T11:46:15.072Z,16.20
2018-04-12T11:48:49.993Z,16.20
2018-04-12T11:51:23.680Z,16.00
2018-04-12T11:53:57.350Z,16.00
2018-04-12T11:56:31.156Z,16.30
2018-04-12T11:59:05.604Z,17.10
2018-04-12T12:01:39.398Z,17.10
2018-04-12T12:04:13.155Z,17.10
2018-04-12T12:06:46.858Z,17.20
2018-04-12T12:09:21.344Z,18.10
2018-04-12T12:11:55.071Z,18.10
2018-04-12T12:14:28.865Z,18.90
2018-04-12T12:17:03.311Z,19.20
2018-04-12T12:19:37.541Z,18.90
2018-04-12T12:22:11.236Z,18.90
2018-04-12T12:24:44.938Z,18.90
2018-04-12T12:27:18.711Z,18.90
2018-04-12T12:29:52.419Z,18.70
2018-04-12T12:32:26.223Z,18.70
2018-04-12T12:34:59.865Z,18.40
2018-04-12T12:37:34.239Z,18.00
2018-04-12T12:40:07.879Z,18.00
2018-04-12T12:42:41.451Z,18.10
2018-04-12T12:45:15.194Z,18.60
2018-04-12T12:47:49.687Z,19.00
2018-04-12T12:50:23.375Z,18.90
2018-04-12T12:52:57.093Z,20.10
2018-04-12T12:55:30.807Z,21.00
2018-04-12T12:58:04.371Z,21.40
2018-04-12T13:00:37.974Z,22.50
2018-04-12T13:03:11.715Z,23.40
2018-04-12T13:05:45.467Z,23.40
2018-04-12T13:08:19.219Z,23.10
2018-04-12T13:10:53.058Z,22.70
2018-04-12T13:13:26.865Z,22.50
2018-04-12T13:16:00.597Z,22.40
2018-04-12T13:18:34.375Z,22.60
2018-04-12T13:21:08.140Z,22.90
2018-04-12T13:23:41.733Z,23.60
2018-04-12T13:26:16.268Z,24.50
2018-04-12T13:28:49.903Z,24.40
2018-04-12T13:31:23.704Z,25.00
2018-04-12T13:33:58.121Z,25.70
2018-04-12T13:36:33.382Z,25.90
2018-04-12T13:39:07.148Z,25.90
2018-04-12T13:41:41.666Z,25.50
2018-04-12T13:44:15.470Z,25.40
2018-04-12T13:46:48.968Z,24.70
2018-04-12T13:49:23.549Z,24.60
2018-04-12T13:51:57.911Z,24.60
2018-04-12T13:54:31.648Z,24.50
2018-04-12T13:57:06.136Z,25.10
2018-04-12T13:59:39.757Z,25.70
2018-04-12T14:02:13.546Z,26.10
2018-04-12T14:04:48.061Z,25.10
2018-04-12T14:07:21.814Z,25.10
2018-04-12T14:09:56.292Z,24.50
2018-04-12T14:12:29.907Z,24.50
2018-04-12T14:15:04.370Z,24.20
2018-04-12T14:17:38.174Z,23.70
2018-04-12T14:20:11.785Z,23.30
2018-04-12T14:22:45.519Z,23.20
2018-04-12T14:25:19.229Z,23.50
2018-04-12T14:27:52.984Z,23.80
2018-04-12T14:30:26.563Z,24.40
2018-04-12T14:33:00.288Z,25.10
2018-04-12T14:35:34.047Z,25.10
2018-04-12T14:38:07.820Z,24.50
2018-04-12T14:40:41.524Z,23.90
2018-04-12T14:43:15.360Z,23.60
2018-04-12T14:45:49.900Z,23.30
2018-04-12T14:48:23.593Z,22.70
2018-04-12T14:50:57.220Z,22.60
2018-04-12T14:53:31.627Z,22.50
2018-04-12T14:56:05.325Z,22.50
2018-04-12T14:58:38.970Z,22.50
2018-04-12T15:01:12.575Z,22.50
2018-04-12T15:03:46.317Z,22.50
2018-04-12T15:06:20.100Z,22.50
2018-04-12T15:08:54.460Z,22.30
2018-04-12T15:11:28.860Z,22.20
2018-04-12T15:14:03.397Z,22.10
2018-04-12T15:16:37.018Z,22.10
2018-04-12T15:19:10.755Z,22.20
2018-04-12T15:21:44.458Z,22.20
2018-04-12T15:24:18.942Z,21.90
2018-04-12T15:26:52.683Z,22.00
2018-04-12T15:29:26.249Z,22.40
2018-04-12T15:32:01.698Z,22.80
2018-04-12T15:34:36.429Z,23.10
2018-04-12T15:37:11.384Z,22.30
2018-04-12T15:39:45.871Z,22.20
2018-04-12T15:42:20.119Z,21.90
2018-04-12T15:44:54.443Z,21.60
2018-04-12T15:47:28.171Z,21.40
2018-04-12T15:50:01.927Z,21.20
2018-04-12T15:52:36.533Z,21.00
2018-04-12T15:55:10.658Z,20.90
2018-04-12T15:57:44.357Z,20.80
2018-04-12T16:00:19.382Z,20.70
2018-04-12T16:02:54.927Z,20.70
2018-04-12T16:05:29.035Z,20.60
2018-04-12T16:08:02.627Z,20.50
2018-04-12T16:10:37.039Z,20.40
2018-04-12T16:13:12.403Z,20.00
2018-04-12T16:15:46.229Z,20.00
2018-04-12T16:18:20.759Z,19.80
2018-04-12T16:20:54.364Z,19.80
2018-04-12T16:23:28.107Z,19.70
2018-04-12T16:26:01.796Z,19.70
2018-04-12T16:28:36.248Z,19.60
2018-04-12T16:31:09.783Z,19.60
2018-04-12T16:33:43.552Z,19.50
2018-04-12T16:36:17.860Z,19.30
2018-04-12T16:38:51.475Z,19.30
2018-04-12T16:41:25.175Z,19.20
2018-04-12T16:43:58.945Z,19.20
2018-04-12T16:46:32.718Z,19.10
2018-04-12T16:49:07.511Z,19.10
2018-04-12T16:51:41.234Z,19.00
2018-04-12T16:54:14.928Z,19.00
2018-04-12T16:56:48.627Z,18.90
2018-04-12T16:59:22.247Z,18.90
2018-04-12T17:01:56.425Z,18.80
2018-04-12T17:04:30.913Z,18.70
2018-04-12T17:07:05.395Z,18.60
2018-04-12T17:09:39.747Z,18.60
2018-04-12T17:12:14.263Z,18.60
2018-04-12T17:14:47.845Z,18.60
2018-04-12T17:17:22.355Z,18.50
2018-04-12T17:19:55.968Z,18.50
2018-04-12T17:22:29.674Z,18.40
2018-04-12T17:25:03.341Z,18.40
2018-04-12T17:27:37.079Z,18.40
2018-04-12T17:30:11.500Z,18.20
2018-04-12T17:32:45.109Z,18.20
2018-04-12T17:35:18.710Z,18.20
2018-04-12T17:37:52.399Z,18.10
2018-04-12T17:40:27.583Z,18.10
2018-04-12T17:43:01.340Z,18.00
2018-04-12T17:45:35.074Z,17.90
2018-04-12T17:48:08.848Z,17.90
2018-04-12T17:50:42.571Z,17.80
2018-04-12T17:53:16.261Z,17.80
2018-04-12T17:55:50.626Z,17.70
2018-04-12T17:58:25.091Z,17.70
2018-04-12T18:00:59.461Z,17.60
2018-04-12T18:03:33.203Z,17.60
2018-04-12T18:06:06.943Z,17.60
2018-04-12T18:08:40.676Z,17.60
2018-04-12T18:11:14.447Z,17.60
2018-04-12T18:13:48.952Z,17.50
2018-04-12T18:16:22.671Z,17.50
2018-04-12T18:18:56.355Z,17.50
2018-04-12T18:21:30.019Z,17.50
2018-04-12T18:24:04.613Z,17.50
2018-04-12T18:26:38.346Z,17.50
2018-04-12T18:29:12.767Z,17.40
2018-04-12T18:31:46.423Z,17.40
2018-04-12T18:34:20.815Z,17.40
2018-04-12T18:36:54.376Z,17.40
2018-04-12T18:39:28.859Z,17.40
2018-04-12T18:42:02.580Z,17.40
2018-04-12T18:44:36.387Z,17.40
2018-04-12T18:47:10.634Z,17.40
2018-04-12T18:49:45.289Z,17.30
2018-04-12T18:52:18.950Z,17.20
2018-04-12T18:54:52.591Z,17.20
2018-04-12T18:57:26.347Z,17.30
2018-04-12T19:00:00.119Z,17.20
2018-04-12T19:02:33.830Z,17.20
2018-04-12T19:05:08.319Z,17.20
2018-04-12T19:07:42.947Z,17.10
2018-04-12T19:10:16.527Z,17.00
2018-04-12T19:12:50.300Z,17.00
2018-04-12T19:15:24.036Z,17.00
2018-04-12T19:17:57.821Z,17.00
2018-04-12T19:20:31.566Z,17.00
2018-04-12T19:23:05.253Z,17.00
2018-04-12T19:25:39.053Z,17.00
2018-04-12T19:28:12.826Z,17.00
2018-04-12T19:30:46.596Z,16.90
2018-04-12T19:33:20.299Z,17.00
2018-04-12T19:35:53.868Z,17.00
2018-04-12T19:38:27.559Z,17.00
2018-04-12T19:41:01.312Z,17.10
2018-04-12T19:43:34.949Z,17.10
2018-04-12T19:46:08.671Z,17.10
2018-04-12T19:48:42.451Z,17.00
2018-04-12T19:51:16.206Z,17.00
2018-04-12T19:53:50.695Z,16.90
2018-04-12T19:56:24.355Z,16.80
2018-04-12T19:58:58.133Z,16.70
2018-04-12T20:01:32.540Z,16.60
2018-04-12T20:04:06.325Z,16.50
2018-04-12T20:06:40.021Z,16.50
2018-04-12T20:09:13.799Z,16.50
2018-04-12T20:11:48.014Z,16.40
2018-04-12T20:14:21.568Z,16.40
2018-04-12T20:16:56.135Z,16.30
2018-04-12T20:19:29.789Z,16.30
2018-04-12T20:22:03.542Z,16.30
2018-04-12T20:24:37.290Z,16.20
2018-04-12T20:27:11.820Z,16.20
2018-04-12T20:29:45.579Z,16.10
2018-04-12T20:32:19.211Z,16.20
2018-04-12T20:34:52.991Z,16.20
2018-04-12T20:37:26.756Z,16.20
2018-04-12T20:40:00.522Z,16.10
2018-04-12T20:42:34.264Z,16.10
2018-04-12T20:45:08.733Z,16.00
2018-04-12T20:47:42.300Z,16.00
2018-04-12T20:50:16.065Z,16.00
2018-04-12T20:52:49.795Z,16.00
2018-04-12T20:55:24.286Z,16.00
2018-04-12T20:57:59.338Z,16.00
2018-04-12T21:00:33.044Z,16.00
2018-04-12T21:03:06.805Z,16.00
2018-04-12T21:05:40.624Z,16.10
2018-04-12T21:08:14.518Z,16.10
2018-04-12T21:10:48.157Z,16.10
2018-04-12T21:13:22.656Z,16.20
2018-04-12T21:15:56.370Z,16.20
2018-04-12T21:18:30.121Z,16.30
2018-04-12T21:21:03.863Z,16.30
2018-04-12T21:23:37.436Z,16.30
2018-04-12T21:26:11.211Z,16.30
2018-04-12T21:28:44.952Z,16.30
2018-04-12T21:31:18.762Z,16.30
2018-04-12T21:33:52.415Z,16.30
2018-04-12T21:36:26.199Z,16.30
2018-04-12T21:38:59.938Z,16.30
2018-04-12T21:41:33.507Z,16.30
2018-04-12T21:44:08.036Z,16.30
2018-04-12T21:46:41.751Z,16.30
2018-04-12T21:49:15.724Z,16.30
2018-04-12T21:51:50.087Z,16.20
2018-04-12T21:54:23.812Z,16.20
2018-04-12T21:56:57.602Z,16.10
2018-04-12T21:59:31.355Z,16.20
2018-04-12T22:02:04.927Z,16.30
2018-04-12T22:04:38.684Z,16.30
2018-04-12T22:07:12.465Z,16.30
2018-04-12T22:09:46.163Z,16.30
2018-04-12T22:12:19.942Z,16.40
2018-04-12T22:14:54.222Z,16.40
2018-04-12T22:17:27.918Z,16.50
2018-04-12T22:20:01.693Z,16.50
2018-04-12T22:22:35.425Z,16.50
2018-04-12T22:25:09.174Z,16.50
2018-04-12T22:27:42.979Z,16.50
2018-04-12T22:30:16.720Z,16.50
2018-04-12T22:32:50.528Z,16.40
2018-04-12T22:35:24.272Z,16.20
2018-04-12T22:37:58.000Z,16.00
2018-04-12T22:40:31.777Z,15.80
2018-04-12T22:43:05.583Z,15.70
2018-04-12T22:45:39.246Z,15.60
2018-04-12T22:48:13.023Z,15.60
2018-04-12T22:50:46.612Z,15.50
2018-04-12T22:53:21.147Z,15.40
2018-04-12T22:55:54.849Z,15.30
2018-04-12T22:58:28.640Z,15.30
2018-04-12T23:01:02.298Z,15.30
2018-04-12T23:03:36.102Z,15.30
2018-04-12T23:06:10.647Z,15.30
2018-04-12T23:08:44.409Z,15.40
2018-04-12T23:11:18.205Z,15.30
2018-04-12T23:13:51.989Z,15.30
2018-04-12T23:16:25.688Z,15.20
2018-04-12T23:18:59.405Z,15.20
2018-04-12T23:21:33.179Z,15.10
2018-04-12T23:24:06.877Z,15.10
2018-04-12T23:26:40.644Z,15.10
2018-04-12T23:29:14.413Z,15.00
2018-04-12T23:31:48.222Z,15.00
2018-04-12T23:34:22.711Z,14.90
2018-04-12T23:36:56.514Z,14.90
2018-04-12T23:39:30.232Z,15.00
2018-04-12T23:42:04.776Z,14.90
2018-04-12T23:44:38.452Z,14.90
2018-04-12T23:47:12.193Z,14.90
2018-04-12T23:49:45.803Z,14.90
2018-04-12T23:52:20.327Z,14.90
2018-04-12T23:54:53.878Z,14.90
2018-04-12T23:57:27.688Z,14.90
